Time;durP1;ratioP1;P1;durP2;ratioP2;P2;SDS_P1;SDS_P2;PMS_P1;PMS_P2;Temp;Humidity;BMP_temperature;BMP_pressure;BME280_temperature;BME280_humidity;BME280_pressure;Samples;Min_cycle;Max_cycle;Signal;HPM_P1;HPM_P2
2021/03/06 00:01:16;;;;;;;3.10;1.08;;;1.30;99.90;;;;;;4930536;29;20048;-77
2021/03/06 00:03:42;;;;;;;1.90;1.00;;;1.30;99.90;;;;;;4928846;29;20048;-77
2021/03/06 00:06:07;;;;;;;2.28;1.25;;;1.20;99.90;;;;;;4925842;29;20126;-76
2021/03/06 00:08:33;;;;;;;2.45;0.90;;;1.20;99.90;;;;;;4911507;29;20056;-77
2021/03/06 00:10:58;;;;;;;4.05;1.27;;;1.20;99.90;;;;;;4912676;29;20055;-77
2021/03/06 00:13:25;;;;;;;4.70;1.63;;;1.20;99.90;;;;;;4925622;29;20504;-76
2021/03/06 00:15:51;;;;;;;6.05;1.20;;;1.20;99.90;;;;;;4929595;29;20035;-77
2021/03/06 00:18:17;;;;;;;2.13;1.10;;;1.10;99.90;;;;;;4930354;29;20040;-77
2021/03/06 00:20:43;;;;;;;1.02;0.50;;;1.10;99.90;;;;;;4929523;29;20086;-77
2021/03/06 00:23:09;;;;;;;4.35;1.08;;;1.10;99.90;;;;;;4926768;29;20061;-76
2021/03/06 00:25:34;;;;;;;2.55;0.98;;;1.10;99.90;;;;;;4925926;29;20032;-77
2021/03/06 00:28:00;;;;;;;1.08;0.73;;;1.10;99.90;;;;;;4929952;29;20035;-76
2021/03/06 00:30:26;;;;;;;2.97;1.30;;;1.10;99.90;;;;;;4930121;29;20032;-78
2021/03/06 00:32:52;;;;;;;0.85;0.47;;;1.20;99.90;;;;;;4929894;29;20051;-77
2021/03/06 00:35:18;;;;;;;3.17;1.23;;;1.20;99.90;;;;;;4930158;29;20028;-77
2021/03/06 00:37:43;;;;;;;4.18;1.05;;;1.20;99.90;;;;;;4930019;29;20036;-77
2021/03/06 00:40:11;;;;;;;6.13;1.27;;;1.20;99.90;;;;;;4929819;29;20096;-77
2021/03/06 00:42:36;;;;;;;2.78;1.23;;;1.20;99.90;;;;;;4930044;29;20034;-76
2021/03/06 00:45:04;;;;;;;4.45;1.15;;;1.10;99.90;;;;;;4928493;29;20088;-78
2021/03/06 00:47:30;;;;;;;2.70;1.17;;;1.10;99.90;;;;;;4919161;29;20060;-76
2021/03/06 00:49:55;;;;;;;3.30;1.45;;;1.10;99.90;;;;;;4909508;29;20040;-77
2021/03/06 00:52:21;;;;;;;1.30;1.05;;;1.10;99.90;;;;;;4910807;29;20067;-77
2021/03/06 00:54:48;;;;;;;10.85;0.82;;;1.20;99.90;;;;;;4910631;29;20061;-76
2021/03/06 00:57:13;;;;;;;4.05;1.60;;;1.10;99.90;;;;;;4910875;29;20031;-77
2021/03/06 00:59:39;;;;;;;2.45;1.25;;;1.10;99.90;;;;;;4909240;29;20064;-76
2021/03/06 01:02:04;;;;;;;1.95;0.95;;;1.10;99.90;;;;;;4909229;29;20032;-77
2021/03/06 01:04:30;;;;;;;0.88;0.63;;;1.10;99.90;;;;;;4910137;29;20057;-78
2021/03/06 01:06:56;;;;;;;1.20;0.68;;;1.10;99.90;;;;;;4909394;29;20033;-79
2021/03/06 01:09:21;;;;;;;2.00;0.93;;;1.20;99.90;;;;;;4909355;29;20041;-76
2021/03/06 01:11:47;;;;;;;2.13;1.33;;;1.20;99.90;;;;;;4908922;29;20024;-77
2021/03/06 01:14:13;;;;;;;0.63;0.63;;;1.20;99.90;;;;;;4909279;29;20035;-77
2021/03/06 01:16:38;;;;;;;2.38;1.20;;;1.20;99.90;;;;;;4910324;29;20044;-76
2021/03/06 01:19:04;;;;;;;1.88;1.23;;;1.10;99.90;;;;;;4909046;29;20475;-76
2021/03/06 01:21:30;;;;;;;2.17;1.30;;;1.10;99.90;;;;;;4908815;29;20072;-76
2021/03/06 01:23:56;;;;;;;3.78;1.40;;;1.10;99.90;;;;;;4908601;29;20144;-76
2021/03/06 01:26:22;;;;;;;1.85;1.10;;;1.10;99.90;;;;;;4907791;29;20073;-76
2021/03/06 01:28:47;;;;;;;1.05;0.98;;;1.00;99.90;;;;;;4909993;29;20024;-76
2021/03/06 01:31:13;;;;;;;8.18;1.88;;;1.00;99.90;;;;;;4910217;29;20035;-75
2021/03/06 01:33:39;;;;;;;3.20;1.48;;;1.00;99.90;;;;;;4909911;29;20031;-75
2021/03/06 01:36:05;;;;;;;4.07;2.05;;;1.00;99.90;;;;;;4908503;29;20040;-75
2021/03/06 01:38:30;;;;;;;2.50;1.15;;;1.00;99.90;;;;;;4909649;29;20036;-76
2021/03/06 01:40:56;;;;;;;2.95;1.20;;;1.10;99.90;;;;;;4908411;29;20071;-76
2021/03/06 01:43:21;;;;;;;7.30;1.95;;;1.10;99.90;;;;;;4908542;29;20033;-76
2021/03/06 01:45:48;;;;;;;6.20;1.60;;;1.20;99.90;;;;;;4908678;29;20033;-76
2021/03/06 01:48:14;;;;;;;13.32;2.47;;;1.20;99.90;;;;;;4910026;29;20417;-76
2021/03/06 01:50:43;;;;;;;13.98;2.20;;;1.20;99.90;;;;;;4908479;29;20028;-77
2021/03/06 01:53:11;;;;;;;4.47;2.03;;;1.20;99.90;;;;;;4909626;29;20039;-76
2021/03/06 01:55:41;;;;;;;17.85;1.85;;;1.20;99.90;;;;;;4908185;29;20119;-77
2021/03/06 01:58:08;;;;;;;8.05;2.15;;;1.20;99.90;;;;;;4909617;29;20092;-76
2021/03/06 02:00:34;;;;;;;7.13;2.40;;;1.20;99.90;;;;;;4907948;29;20505;-76
2021/03/06 02:03:00;;;;;;;2.80;1.50;;;1.30;99.90;;;;;;4907926;29;20049;-77
2021/03/06 02:05:27;;;;;;;3.53;1.67;;;1.30;99.90;;;;;;4909355;29;20039;-76
2021/03/06 02:07:53;;;;;;;2.45;1.77;;;1.30;99.90;;;;;;4909550;29;20045;-78
2021/03/06 02:10:28;;;;;;;3.92;1.65;;;1.40;99.90;;;;;;4908330;29;20040;-76
2021/03/06 02:13:19;;;;;;;2.47;1.52;;;1.40;99.90;;;;;;4909527;29;20032;-77
2021/03/06 02:16:05;;;;;;;5.28;2.17;;;1.40;99.90;;;;;;4909485;29;20151;-75
2021/03/06 02:18:56;;;;;;;3.25;1.40;;;1.50;99.90;;;;;;4909721;29;20037;-76
2021/03/06 02:21:59;;;;;;;4.28;2.40;;;1.50;99.90;;;;;;4907865;29;20072;-75
2021/03/06 02:25:00;;;;;;;4.05;1.85;;;1.50;99.90;;;;;;4925406;29;20074;-76
2021/03/06 02:27:54;;;;;;;9.50;2.65;;;1.50;99.90;;;;;;4909236;29;20751;-75
2021/03/06 02:30:20;;;;;;;;;;;1.60;99.90;;;;;;4922196;29;20068;-77
2021/03/06 02:32:48;;;;;;;4.47;0.98;;;1.60;99.90;;;;;;4907953;29;19907;-76
2021/03/06 02:35:18;;;;;;;3.72;1.95;;;1.60;99.90;;;;;;4909221;29;20402;-77
2021/03/06 02:37:56;;;;;;;2.55;1.38;;;1.60;99.90;;;;;;4912351;29;20756;-76
2021/03/06 02:40:24;;;;;;;8.73;1.50;;;1.60;99.90;;;;;;4911688;29;20170;-77
2021/03/06 02:42:52;;;;;;;8.13;1.77;;;1.60;99.90;;;;;;4913335;29;20084;-78
2021/03/06 02:45:19;;;;;;;2.70;1.08;;;1.60;99.90;;;;;;4911950;29;20032;-78
2021/03/06 02:47:46;;;;;;;3.70;1.50;;;1.60;99.90;;;;;;4913330;29;20217;-77
2021/03/06 02:50:12;;;;;;;4.68;1.92;;;1.70;99.90;;;;;;4912959;29;20038;-77
2021/03/06 02:52:38;;;;;;;3.65;1.95;;;1.70;99.90;;;;;;4911737;29;20060;-77
2021/03/06 02:55:09;;;;;;;1.60;1.33;;;1.70;99.90;;;;;;4912911;29;20084;-76
2021/03/06 02:57:47;;;;;;;2.50;1.10;;;1.70;99.90;;;;;;4913113;29;20393;-77
2021/03/06 03:00:19;;;;;;;1.45;1.05;;;1.70;99.90;;;;;;4912539;29;20050;-77
2021/03/06 03:02:58;;;;;;;4.63;2.15;;;1.70;99.90;;;;;;4912724;29;20049;-76
2021/03/06 03:05:27;;;;;;;3.75;1.00;;;1.70;99.90;;;;;;4912544;29;20040;-77
2021/03/06 03:08:17;;;;;;;4.18;1.60;;;1.70;99.90;;;;;;4912664;29;20108;-77
2021/03/06 03:10:49;;;;;;;3.33;1.58;;;1.60;99.90;;;;;;4911218;29;20032;-76
2021/03/06 03:13:29;;;;;;;4.75;0.95;;;1.60;99.90;;;;;;4912710;29;20409;-77
2021/03/06 03:16:05;;;;;;;6.90;2.22;;;1.60;99.90;;;;;;4912711;29;20084;-78
2021/03/06 03:18:38;;;;;;;3.42;1.23;;;1.60;99.90;;;;;;4911067;29;20036;-77
2021/03/06 03:21:05;;;;;;;1.77;1.05;;;1.60;99.90;;;;;;4913578;29;20044;-77
2021/03/06 03:23:41;;;;;;;1.23;0.93;;;1.60;99.90;;;;;;4926809;29;20024;-77
2021/03/06 03:26:15;;;;;;;6.93;1.83;;;1.60;99.90;;;;;;4927792;29;20028;-77
2021/03/06 03:28:44;;;;;;;3.42;1.77;;;1.50;99.90;;;;;;4930917;29;20036;-78
2021/03/06 03:31:10;;;;;;;3.88;1.02;;;1.60;99.90;;;;;;4931205;29;20032;-77
2021/03/06 03:33:39;;;;;;;4.97;1.13;;;1.60;99.90;;;;;;4931265;29;20028;-76
2021/03/06 03:36:05;;;;;;;5.03;2.03;;;1.60;99.90;;;;;;4929649;29;20508;-78
2021/03/06 03:38:32;;;;;;;1.95;0.77;;;1.60;99.90;;;;;;4930738;29;20075;-77
2021/03/06 03:40:59;;;;;;;2.85;1.13;;;1.70;99.90;;;;;;4930882;29;20044;-78
2021/03/06 03:43:26;;;;;;;17.45;1.45;;;1.70;99.90;;;;;;4931080;29;20040;-78
2021/03/06 03:45:53;;;;;;;3.75;1.70;;;1.70;99.90;;;;;;4930994;29;20032;-77
2021/03/06 03:48:20;;;;;;;38.80;1.65;;;1.70;99.90;;;;;;4929876;29;20028;-78
2021/03/06 03:50:45;;;;;;;4.20;1.88;;;1.70;99.90;;;;;;4930901;29;20032;-79
2021/03/06 03:53:12;;;;;;;4.93;1.38;;;1.70;99.90;;;;;;4929684;29;20068;-76
2021/03/06 03:55:40;;;;;;;4.68;1.40;;;1.80;99.90;;;;;;4930741;29;20020;-78
2021/03/06 03:58:05;;;;;;;1.15;0.93;;;1.80;99.90;;;;;;4930727;29;20430;-76
2021/03/06 04:00:31;;;;;;;1.58;1.02;;;1.80;99.90;;;;;;4929198;29;20068;-77
2021/03/06 04:03:05;;;;;;;1.85;1.38;;;1.90;99.90;;;;;;4930434;29;20056;-77
2021/03/06 04:05:31;;;;;;;1.02;0.93;;;1.90;99.90;;;;;;4930567;29;20382;-77
2021/03/06 04:07:57;;;;;;;3.22;1.08;;;1.90;99.90;;;;;;4929246;29;20039;-77
2021/03/06 04:10:25;;;;;;;3.42;1.55;;;1.90;99.90;;;;;;4930454;29;20058;-77
2021/03/06 04:12:52;;;;;;;1.98;0.70;;;1.90;99.90;;;;;;4929172;29;20054;-76
2021/03/06 04:15:19;;;;;;;2.83;0.90;;;1.90;99.90;;;;;;4929375;29;20028;-77
2021/03/06 04:17:46;;;;;;;4.65;1.45;;;1.90;99.90;;;;;;4929325;29;20056;-76
2021/03/06 04:20:14;;;;;;;5.07;1.73;;;1.90;99.90;;;;;;4928760;29;20051;-76
2021/03/06 04:22:40;;;;;;;4.20;1.10;;;1.90;99.90;;;;;;4930274;29;20031;-76
2021/03/06 04:25:07;;;;;;;3.47;1.63;;;1.90;99.90;;;;;;4928570;29;20036;-76
2021/03/06 04:27:34;;;;;;;5.78;2.20;;;2.00;99.90;;;;;;4928757;29;20032;-77
2021/03/06 04:30:00;;;;;;;1.38;1.00;;;1.90;99.90;;;;;;4930054;29;20043;-76
2021/03/06 04:32:26;;;;;;;6.97;1.98;;;1.90;99.90;;;;;;4930146;29;20037;-77
2021/03/06 04:34:51;;;;;;;1.88;1.00;;;1.90;99.90;;;;;;4928780;29;20040;-76
2021/03/06 04:37:17;;;;;;;6.57;2.60;;;1.90;99.90;;;;;;4930337;29;20466;-77
2021/03/06 04:39:43;;;;;;;2.38;1.60;;;1.90;99.90;;;;;;4929840;29;20185;-78
2021/03/06 04:42:09;;;;;;;2.72;1.70;;;1.90;99.90;;;;;;4928707;29;20032;-76
2021/03/06 04:44:35;;;;;;;7.57;1.52;;;2.00;99.90;;;;;;4928480;29;20052;-77
2021/03/06 04:47:03;;;;;;;5.22;2.30;;;2.00;99.90;;;;;;4928577;29;20035;-77
2021/03/06 04:49:29;;;;;;;7.47;2.80;;;2.00;99.90;;;;;;4929442;29;20028;-77
2021/03/06 04:51:54;;;;;;;8.75;3.13;;;1.90;99.90;;;;;;4929739;29;20055;-77
2021/03/06 04:54:20;;;;;;;10.18;2.90;;;1.90;99.90;;;;;;4929851;29;20048;-77
2021/03/06 04:56:45;;;;;;;4.57;2.65;;;1.90;99.90;;;;;;4929770;29;20032;-77
2021/03/06 04:59:11;;;;;;;9.95;2.78;;;1.90;99.90;;;;;;4928126;29;20036;-76
2021/03/06 05:01:36;;;;;;;5.35;2.92;;;2.00;99.90;;;;;;4928250;29;20130;-77
2021/03/06 05:04:02;;;;;;;3.95;1.73;;;2.00;99.90;;;;;;4927874;29;20048;-77
2021/03/06 05:06:28;;;;;;;3.38;1.60;;;2.00;99.90;;;;;;4928151;29;20040;-76
2021/03/06 05:08:53;;;;;;;5.93;2.40;;;2.00;99.90;;;;;;4929504;29;20058;-76
2021/03/06 05:11:19;;;;;;;4.75;2.22;;;1.90;99.90;;;;;;4929356;29;20079;-77
2021/03/06 05:13:44;;;;;;;1.48;1.15;;;2.00;99.90;;;;;;4928267;29;20048;-77
2021/03/06 05:16:10;;;;;;;6.47;2.72;;;1.90;99.90;;;;;;4929090;29;20039;-75
2021/03/06 05:18:36;;;;;;;3.60;1.30;;;1.90;99.90;;;;;;4929305;29;20067;-77
2021/03/06 05:21:01;;;;;;;3.53;1.50;;;1.90;99.90;;;;;;4928997;29;20048;-77
2021/03/06 05:23:28;;;;;;;5.50;1.55;;;1.90;99.90;;;;;;4929086;29;20028;-77
2021/03/06 05:25:53;;;;;;;2.45;1.13;;;1.80;99.90;;;;;;4929029;29;20028;-77
2021/03/06 05:28:20;;;;;;;4.80;1.27;;;1.90;99.90;;;;;;4927802;29;20371;-76
2021/03/06 05:30:46;;;;;;;3.78;1.15;;;1.80;99.90;;;;;;4929190;29;20094;-75
2021/03/06 05:33:13;;;;;;;3.70;1.67;;;1.80;99.90;;;;;;4927666;29;20541;-76
2021/03/06 05:35:39;;;;;;;6.93;1.30;;;1.80;99.90;;;;;;4928690;29;20047;-77
2021/03/06 05:38:05;;;;;;;2.95;1.40;;;1.80;99.90;;;;;;4928653;29;20040;-76
2021/03/06 05:40:39;;;;;;;6.20;2.05;;;1.80;99.90;;;;;;4927392;29;20111;-77
2021/03/06 05:43:05;;;;;;;5.28;1.52;;;1.80;99.90;;;;;;4927413;29;20089;-76
2021/03/06 05:45:31;;;;;;;10.15;1.73;;;1.80;99.90;;;;;;4927501;29;20493;-77
2021/03/06 05:47:57;;;;;;;5.05;1.40;;;1.90;99.90;;;;;;4927425;29;20080;-76
2021/03/06 05:50:23;;;;;;;1.67;1.17;;;1.90;99.90;;;;;;4928765;29;20039;-77
2021/03/06 05:52:50;;;;;;;2.97;1.13;;;1.90;99.90;;;;;;4927323;29;20029;-75
2021/03/06 05:55:18;;;;;;;5.85;1.83;;;1.90;99.90;;;;;;4927251;29;20036;-79
2021/03/06 05:57:43;;;;;;;1.67;1.10;;;1.90;99.90;;;;;;4928894;29;20055;-76
2021/03/06 06:00:10;;;;;;;3.25;1.67;;;2.00;99.90;;;;;;4928306;29;20055;-79
2021/03/06 06:02:37;;;;;;;8.35;1.60;;;2.00;99.90;;;;;;4928127;29;20127;-77
2021/03/06 06:05:04;;;;;;;0.85;0.85;;;2.00;99.90;;;;;;4926928;29;20057;-77
2021/03/06 06:07:34;;;;;;;6.55;2.40;;;2.10;99.90;;;;;;4928418;29;20033;-76
2021/03/06 06:10:00;;;;;;;1.80;0.80;;;2.10;99.90;;;;;;4920519;29;20108;-76
2021/03/06 06:12:26;;;;;;;5.00;1.98;;;2.10;99.90;;;;;;4907973;29;20060;-75
2021/03/06 06:14:52;;;;;;;4.93;1.98;;;2.10;99.90;;;;;;4909299;29;20040;-77
2021/03/06 06:17:18;;;;;;;2.20;1.55;;;2.10;99.90;;;;;;4909425;29;20036;-76
2021/03/06 06:19:44;;;;;;;3.92;1.25;;;2.10;99.90;;;;;;4908153;29;20048;-75
2021/03/06 06:22:23;;;;;;;2.70;1.38;;;2.00;99.90;;;;;;4915769;29;20044;-77
2021/03/06 06:24:53;;;;;;;6.80;2.30;;;2.00;99.90;;;;;;4922579;29;20040;-76
2021/03/06 06:27:24;;;;;;;7.30;1.65;;;2.10;99.90;;;;;;4923879;29;20028;-76
2021/03/06 06:29:52;;;;;;;3.75;1.77;;;2.10;99.90;;;;;;4926844;29;20028;-75
2021/03/06 06:32:19;;;;;;;3.38;1.95;;;2.10;99.90;;;;;;4926818;29;20039;-76
2021/03/06 06:35:02;;;;;;;5.45;2.28;;;2.10;99.90;;;;;;4925033;29;20035;-74
2021/03/06 06:37:29;;;;;;;5.47;1.58;;;2.20;99.90;;;;;;4926582;29;20051;-74
2021/03/06 06:39:56;;;;;;;21.15;2.35;;;2.20;99.90;;;;;;4926333;29;20091;-75
2021/03/06 06:42:42;;;;;;;2.20;1.38;;;2.20;99.90;;;;;;4926681;29;20426;-74
2021/03/06 06:45:08;;;;;;;6.40;1.95;;;2.20;99.90;;;;;;4926268;29;20036;-75
2021/03/06 06:47:45;;;;;;;3.85;1.63;;;2.30;99.90;;;;;;4927579;29;20028;-75
2021/03/06 06:50:13;;;;;;;2.00;1.23;;;2.30;99.90;;;;;;4927952;29;20020;-74
2021/03/06 06:52:43;;;;;;;3.90;1.95;;;2.30;99.90;;;;;;4926823;29;20032;-75
2021/03/06 06:55:11;;;;;;;11.63;2.00;;;2.40;99.90;;;;;;4926685;29;20029;-76
2021/03/06 06:57:51;;;;;;;6.38;2.25;;;2.40;99.90;;;;;;4927836;29;20474;-74
2021/03/06 07:00:18;;;;;;;4.35;2.13;;;2.50;99.90;;;;;;4926712;29;20048;-76
2021/03/06 07:02:52;;;;;;;2.90;1.77;;;2.50;99.90;;;;;;4927963;29;20078;-74
2021/03/06 07:05:45;;;;;;;1.85;1.35;;;2.60;99.90;;;;;;4926655;29;20409;-75
2021/03/06 07:08:25;;;;;;;3.58;1.60;;;2.50;99.90;;;;;;4929156;29;20165;-76
2021/03/06 07:10:52;;;;;;;3.30;1.58;;;2.50;99.90;;;;;;4927810;29;20024;-75
2021/03/06 07:13:19;;;;;;;15.30;1.77;;;2.50;99.90;;;;;;4927909;29;20036;-75
2021/03/06 07:15:56;;;;;;;3.42;1.55;;;2.60;99.90;;;;;;4927891;29;20086;-76
2021/03/06 07:18:22;;;;;;;7.47;1.83;;;2.60;99.90;;;;;;4927857;29;20036;-76
2021/03/06 07:20:53;;;;;;;7.68;1.95;;;2.70;99.90;;;;;;4926749;29;20059;-74
2021/03/06 07:23:26;;;;;;;7.38;2.55;;;2.70;99.90;;;;;;4928465;29;20111;-75
2021/03/06 07:25:53;;;;;;;5.97;1.35;;;2.70;99.90;;;;;;4931352;29;20068;-75
2021/03/06 07:28:19;;;;;;;13.27;1.88;;;2.70;99.90;;;;;;4931431;29;20393;-75
2021/03/06 07:30:45;;;;;;;4.95;1.58;;;2.70;99.90;;;;;;4931586;29;20028;-75
2021/03/06 07:33:13;;;;;;;2.90;1.27;;;2.70;99.90;;;;;;4931242;29;20030;-74
2021/03/06 07:35:41;;;;;;;2.50;1.35;;;2.70;99.90;;;;;;4930748;29;20047;-75
2021/03/06 07:38:14;;;;;;;4.95;2.35;;;2.70;99.90;;;;;;4930814;29;20093;-76
2021/03/06 07:40:41;;;;;;;2.65;1.60;;;2.70;99.90;;;;;;4929506;29;20044;-76
2021/03/06 07:43:17;;;;;;;3.38;1.95;;;2.80;99.90;;;;;;4929250;29;20035;-76
2021/03/06 07:45:47;;;;;;;4.93;1.48;;;2.80;99.90;;;;;;4929793;29;20028;-75
2021/03/06 07:48:15;;;;;;;5.03;1.48;;;2.80;99.90;;;;;;4930961;29;20028;-76
2021/03/06 07:50:42;;;;;;;2.55;1.20;;;2.90;99.90;;;;;;4930838;29;20490;-74
2021/03/06 07:53:09;;;;;;;4.15;2.25;;;2.90;99.90;;;;;;4928359;29;20039;-75
2021/03/06 07:55:36;;;;;;;6.75;2.15;;;3.00;99.90;;;;;;4926424;29;20044;-76
2021/03/06 07:58:16;;;;;;;11.27;2.42;;;3.00;99.90;;;;;;4930333;29;20032;-75
2021/03/06 08:00:58;;;;;;;6.50;3.15;;;3.10;99.90;;;;;;4928288;29;20044;-75
2021/03/06 08:03:35;;;;;;;6.88;2.75;;;3.20;99.90;;;;;;4930469;29;20059;-76
2021/03/06 08:06:20;;;;;;;9.90;2.33;;;3.30;99.90;;;;;;4914874;29;20029;-75
2021/03/06 08:08:45;;;;;;;;;;;3.40;99.90;;;;;;4911697;29;20033;-75
2021/03/06 08:11:20;;;;;;;1.75;0.95;;;3.40;99.90;;;;;;4911455;29;19915;-76
2021/03/06 08:13:48;;;;;;;4.07;1.63;;;3.40;99.90;;;;;;4910345;29;20092;-75
2021/03/06 08:16:23;;;;;;;1.77;1.30;;;3.50;99.90;;;;;;4911559;29;20029;-76
2021/03/06 08:18:56;;;;;;;10.70;1.83;;;3.50;99.90;;;;;;4911391;29;20025;-77
2021/03/06 08:21:32;;;;;;;1.38;1.20;;;3.60;99.90;;;;;;4916895;29;20068;-75
2021/03/06 08:24:13;;;;;;;6.40;2.20;;;3.60;99.90;;;;;;4918860;29;20041;-75
2021/03/06 08:26:39;;;;;;;4.78;1.92;;;3.60;99.90;;;;;;4918649;29;20060;-75
2021/03/06 08:29:24;;;;;;;3.65;1.48;;;3.60;99.90;;;;;;4927521;29;20577;-78
2021/03/06 08:32:02;;;;;;;3.85;1.88;;;3.70;99.90;;;;;;4929537;29;20039;-77
2021/03/06 08:34:38;;;;;;;3.20;1.80;;;3.70;99.90;;;;;;4926071;29;20032;-75
2021/03/06 08:37:16;;;;;;;6.78;1.98;;;3.80;99.90;;;;;;4928393;29;20032;-76
2021/03/06 08:39:42;;;;;;;7.97;1.20;;;3.90;99.90;;;;;;4916798;29;20044;-75
2021/03/06 08:42:09;;;;;;;4.18;1.83;;;4.10;99.90;;;;;;4920864;29;20036;-76
2021/03/06 08:44:35;;;;;;;2.88;1.33;;;4.20;99.90;;;;;;4921823;29;20039;-76
2021/03/06 08:47:01;;;;;;;3.08;1.48;;;4.30;99.90;;;;;;4929281;29;20028;-75
2021/03/06 08:49:27;;;;;;;2.22;1.52;;;4.30;99.90;;;;;;4929088;29;20032;-76
2021/03/06 08:51:54;;;;;;;10.90;1.77;;;4.20;99.90;;;;;;4911908;29;20048;-76
2021/03/06 08:54:21;;;;;;;9.32;1.95;;;4.30;99.90;;;;;;4910787;29;20082;-77
2021/03/06 08:56:48;;;;;;;2.05;0.90;;;4.30;99.90;;;;;;4939244;29;20040;-76
2021/03/06 08:59:14;;;;;;;4.18;1.55;;;4.30;99.90;;;;;;4947130;29;20028;-76
2021/03/06 09:01:39;;;;;;;2.55;1.30;;;4.30;99.90;;;;;;4929163;29;20036;-76
2021/03/06 09:04:06;;;;;;;3.38;1.33;;;4.20;99.90;;;;;;4926362;29;20055;-77
2021/03/06 09:06:39;;;;;;;2.05;1.40;;;4.20;99.90;;;;;;4929553;29;20028;-76
2021/03/06 09:09:08;;;;;;;3.80;1.83;;;4.20;99.90;;;;;;4928465;29;20028;-76
2021/03/06 09:11:34;;;;;;;5.10;1.73;;;4.30;99.90;;;;;;4929101;29;20055;-75
2021/03/06 09:14:00;;;;;;;3.78;1.77;;;4.30;99.90;;;;;;4929566;29;20032;-75
2021/03/06 09:16:26;;;;;;;2.45;1.50;;;4.30;99.90;;;;;;4929142;29;20116;-75
2021/03/06 09:18:52;;;;;;;2.80;1.60;;;4.40;99.90;;;;;;4927927;29;20052;-76
2021/03/06 09:21:20;;;;;;;4.43;1.50;;;4.30;99.90;;;;;;4926415;29;20055;-78
2021/03/06 09:23:49;;;;;;;2.08;1.10;;;4.40;99.90;;;;;;4924572;29;20036;-75
2021/03/06 09:26:19;;;;;;;4.65;1.88;;;4.40;99.90;;;;;;4910885;29;20068;-76
2021/03/06 09:28:50;;;;;;;3.67;1.10;;;4.50;99.90;;;;;;4908895;29;20033;-75
2021/03/06 09:31:26;;;;;;;3.85;1.65;;;4.50;99.90;;;;;;4910153;29;20032;-76
2021/03/06 09:33:52;;;;;;;1.95;1.40;;;4.50;99.90;;;;;;4910404;29;20067;-75
2021/03/06 09:36:23;;;;;;;1.27;1.02;;;4.60;99.90;;;;;;4923016;29;20036;-76
2021/03/06 09:38:52;;;;;;;1.20;0.77;;;4.70;99.90;;;;;;4927593;29;20059;-76
2021/03/06 09:41:21;;;;;;;16.73;1.27;;;4.80;99.90;;;;;;4927456;29;20060;-77
2021/03/06 09:43:55;;;;;;;2.35;1.15;;;4.80;99.90;;;;;;4928888;29;20107;-76
2021/03/06 09:46:26;;;;;;;3.17;1.10;;;4.90;99.90;;;;;;4927157;29;20457;-76
2021/03/06 09:49:00;;;;;;;2.95;1.17;;;5.00;99.90;;;;;;4928733;29;20409;-76
2021/03/06 09:51:45;;;;;;;3.05;1.25;;;5.00;99.90;;;;;;4927525;29;20128;-76
2021/03/06 09:54:15;;;;;;;6.05;1.00;;;5.10;99.90;;;;;;4923101;29;20032;-75
2021/03/06 09:57:01;;;;;;;3.35;1.58;;;5.10;99.90;;;;;;4922858;29;20049;-77
2021/03/06 09:59:29;;;;;;;2.50;1.45;;;4.90;99.90;;;;;;4919997;29;20127;-78
2021/03/06 10:02:04;;;;;;;6.88;1.05;;;5.00;99.90;;;;;;4913861;29;20032;-77
2021/03/06 10:04:29;;;;;;;1.63;1.00;;;5.10;99.90;;;;;;4909194;29;20093;-75
2021/03/06 10:06:57;;;;;;;8.90;1.70;;;5.20;99.90;;;;;;4914605;29;20036;-76
2021/03/06 10:09:31;;;;;;;1.20;1.05;;;5.40;99.90;;;;;;4928676;29;20039;-76
2021/03/06 10:12:06;;;;;;;3.42;1.08;;;5.40;99.90;;;;;;4928171;29;20028;-77
2021/03/06 10:14:32;;;;;;;3.13;0.98;;;5.50;99.90;;;;;;4923191;29;20036;-79
2021/03/06 10:17:00;;;;;;;1.40;1.13;;;5.40;99.90;;;;;;4923113;29;20036;-76
2021/03/06 10:19:29;;;;;;;1.52;0.90;;;5.50;99.90;;;;;;4915937;29;20389;-76
2021/03/06 10:22:02;;;;;;;2.85;1.05;;;5.50;99.90;;;;;;4909193;29;20072;-75
2021/03/06 10:24:28;;;;;;;1.77;0.77;;;5.40;99.90;;;;;;4908275;29;20041;-76
2021/03/06 10:26:58;;;;;;;10.45;2.00;;;5.40;99.90;;;;;;4908487;29;20165;-76
2021/03/06 10:29:25;;;;;;;4.10;0.90;;;5.30;99.90;;;;;;4909258;29;20118;-75
2021/03/06 10:32:02;;;;;;;1.35;0.80;;;5.30;99.90;;;;;;4907701;29;20028;-76
2021/03/06 10:34:31;;;;;;;7.10;1.23;;;5.20;99.90;;;;;;4923368;29;20068;-75
2021/03/06 10:37:16;;;;;;;2.20;1.10;;;5.30;99.90;;;;;;4907669;29;20385;-77
2021/03/06 10:40:03;;;;;;;6.55;1.77;;;5.30;99.90;;;;;;4907593;29;20081;-76
2021/03/06 10:42:44;;;;;;;8.75;1.63;;;5.40;99.90;;;;;;4908992;29;20038;-76
2021/03/06 10:45:28;;;;;;;4.93;1.00;;;5.40;99.90;;;;;;4909114;29;20028;-76
2021/03/06 10:47:56;;;;;;;1.02;0.77;;;5.50;99.90;;;;;;4909304;29;20056;-75
2021/03/06 10:50:26;;;;;;;1.88;0.90;;;5.50;99.90;;;;;;4907646;29;20036;-76
2021/03/06 10:52:53;;;;;;;3.92;1.55;;;5.50;99.90;;;;;;4908364;29;20060;-76
2021/03/06 10:55:33;;;;;;;1.55;1.05;;;5.50;99.90;;;;;;4908833;29;20093;-76
2021/03/06 10:57:59;;;;;;;2.80;1.35;;;5.50;99.90;;;;;;4922248;29;20036;-75
2021/03/06 11:00:25;;;;;;;1.70;1.17;;;5.60;99.90;;;;;;4951186;29;20078;-75
2021/03/06 11:02:56;;;;;;;6.88;0.68;;;5.80;99.90;;;;;;4949045;28;20083;-75
2021/03/06 11:05:23;;;;;;;5.80;1.27;;;6.00;99.90;;;;;;4950876;29;20032;-76
2021/03/06 11:07:49;;;;;;;1.55;1.05;;;6.50;99.90;;;;;;4950813;29;20027;-75
2021/03/06 11:10:17;;;;;;;2.45;0.70;;;6.80;99.90;;;;;;4950870;29;20376;-75
2021/03/06 11:12:59;;;;;;;1.52;0.52;;;7.20;99.90;;;;;;4950657;29;20059;-75
2021/03/06 11:15:28;;;;;;;4.60;0.55;;;7.70;99.90;;;;;;4950454;29;20126;-77
2021/03/06 11:17:56;;;;;;;1.48;0.60;;;8.30;99.90;;;;;;4950254;29;20110;-78
2021/03/06 11:20:25;;;;;;;0.60;0.50;;;8.70;99.90;;;;;;4950593;29;20083;-77
2021/03/06 11:22:52;;;;;;;0.95;0.55;;;9.00;99.90;;;;;;4950537;29;20096;-76
2021/03/06 11:25:18;;;;;;;1.02;0.70;;;9.20;99.90;;;;;;4950583;28;20064;-77
2021/03/06 11:27:50;;;;;;;3.22;0.47;;;9.10;99.90;;;;;;4949826;29;20028;-76
2021/03/06 11:30:19;;;;;;;0.35;0.30;;;8.80;99.90;;;;;;4948872;28;20055;-76
2021/03/06 11:32:45;;;;;;;0.80;0.40;;;8.70;99.90;;;;;;4948313;28;20039;-76
2021/03/06 11:35:11;;;;;;;5.35;0.63;;;8.80;99.90;;;;;;4948127;29;20484;-75
2021/03/06 11:37:37;;;;;;;0.63;0.40;;;9.30;99.90;;;;;;4946737;29;20028;-76
2021/03/06 11:40:04;;;;;;;0.77;0.35;;;9.50;99.90;;;;;;4947403;28;20036;-76
2021/03/06 11:42:30;;;;;;;1.17;0.38;;;9.80;99.90;;;;;;4949788;29;20070;-76
2021/03/06 11:44:56;;;;;;;1.13;0.40;;;9.90;99.90;;;;;;4950076;28;20032;-76
2021/03/06 11:47:22;;;;;;;0.13;0.10;;;9.60;99.90;;;;;;4948751;29;20042;-77
2021/03/06 11:49:47;;;;;;;0.30;0.30;;;9.40;99.90;;;;;;4949983;29;20062;-76
2021/03/06 11:52:13;;;;;;;1.40;0.55;;;9.50;99.90;;;;;;4948297;28;20027;-76
2021/03/06 11:54:39;;;;;;;2.88;0.60;;;9.60;99.90;;;;;;4947950;28;20031;-76
2021/03/06 11:57:05;;;;;;;1.90;0.25;;;9.30;99.90;;;;;;4949790;29;20062;-76
2021/03/06 11:59:30;;;;;;;0.10;0.10;;;9.30;99.90;;;;;;4949304;29;20027;-76
2021/03/06 12:01:56;;;;;;;1.95;0.63;;;9.30;99.90;;;;;;4947585;28;20039;-77
2021/03/06 12:04:21;;;;;;;2.05;0.60;;;9.70;99.90;;;;;;4947607;29;20047;-76
2021/03/06 12:06:47;;;;;;;0.40;0.32;;;9.70;99.90;;;;;;4947950;29;20926;-76
2021/03/06 12:09:12;;;;;;;1.00;0.55;;;9.20;99.90;;;;;;4947734;28;20027;-76
2021/03/06 12:11:38;;;;;;;0.65;0.30;;;8.80;99.90;;;;;;4949330;29;20086;-76
2021/03/06 12:14:04;;;;;;;0.30;0.20;;;8.40;99.90;;;;;;4948110;29;20028;-76
2021/03/06 12:16:29;;;;;;;1.35;0.40;;;8.00;99.90;;;;;;4948003;28;20557;-77
2021/03/06 12:18:55;;;;;;;1.20;0.38;;;7.80;99.90;;;;;;4948905;29;20090;-76
2021/03/06 12:21:21;;;;;;;2.55;0.47;;;7.60;99.90;;;;;;4939500;29;20040;-76
2021/03/06 12:23:47;;;;;;;0.30;0.30;;;7.50;99.90;;;;;;4926146;29;20130;-77
2021/03/06 12:26:15;;;;;;;0.32;0.30;;;7.40;99.90;;;;;;4923433;29;20068;-76
2021/03/06 12:28:41;;;;;;;0.77;0.40;;;7.40;99.90;;;;;;4923251;29;20036;-76
2021/03/06 12:31:07;;;;;;;0.88;0.47;;;7.40;99.90;;;;;;4910981;29;20032;-76
2021/03/06 12:33:32;;;;;;;2.08;0.82;;;7.30;99.90;;;;;;4911171;29;20538;-77
2021/03/06 12:35:58;;;;;;;1.20;0.60;;;7.20;99.90;;;;;;4927191;29;20032;-75
2021/03/06 12:38:24;;;;;;;0.98;0.22;;;7.10;99.90;;;;;;4929024;29;20028;-75
2021/03/06 12:40:50;;;;;;;0.88;0.43;;;7.00;99.90;;;;;;4930119;29;20063;-76
2021/03/06 12:43:16;;;;;;;1.02;0.47;;;6.80;99.90;;;;;;4929837;29;20040;-76
2021/03/06 12:45:41;;;;;;;1.25;0.43;;;6.80;99.90;;;;;;4928392;29;20028;-76
2021/03/06 12:48:07;;;;;;;1.20;0.40;;;6.80;99.90;;;;;;4929779;29;20103;-76
2021/03/06 12:50:32;;;;;;;6.28;1.00;;;6.80;99.90;;;;;;4929855;29;20533;-76
2021/03/06 12:52:58;;;;;;;5.55;0.60;;;6.90;99.90;;;;;;4929714;29;20035;-76
2021/03/06 12:55:24;;;;;;;1.13;0.50;;;6.90;99.90;;;;;;4929606;29;20036;-76
2021/03/06 12:57:49;;;;;;;2.20;0.77;;;6.90;99.90;;;;;;4929938;29;20035;-77
2021/03/06 13:00:15;;;;;;;0.10;0.10;;;7.00;99.90;;;;;;4928592;29;20691;-76
2021/03/06 13:02:41;;;;;;;1.92;0.57;;;7.20;99.90;;;;;;4929188;29;20058;-76
2021/03/06 13:05:07;;;;;;;1.70;0.40;;;7.20;99.90;;;;;;4929556;29;20056;-76
2021/03/06 13:07:33;;;;;;;4.75;0.93;;;7.10;99.90;;;;;;4929253;29;20039;-76